createdAt,value
2023-04-06T00:02:10.774Z,101547.64
2023-04-06T00:04:39.014Z,101544.15
2023-04-06T00:07:07.330Z,101544.36
2023-04-06T00:09:35.604Z,101547.05
2023-04-06T00:12:03.646Z,101546.08
2023-04-06T00:14:31.647Z,101549.77
2023-04-06T00:16:59.661Z,101549.05
2023-04-06T00:19:27.757Z,101548.84
2023-04-06T00:21:56.122Z,101547.31
2023-04-06T00:24:24.049Z,101547.42
2023-04-06T00:26:52.042Z,101547.41
2023-04-06T00:29:19.883Z,101544.61
2023-04-06T00:31:47.762Z,101540.95
2023-04-06T00:34:17.191Z,101542.13
2023-04-06T00:36:45.084Z,101539.29
2023-04-06T00:39:12.997Z,101535.96
2023-04-06T00:41:47.372Z,101539.16
2023-04-06T00:44:15.580Z,101537.98
2023-04-06T00:46:45.621Z,101537.17
2023-04-06T00:49:13.543Z,101534.64
2023-04-06T00:51:41.880Z,101535.33
2023-04-06T00:54:09.803Z,101537.84
2023-04-06T00:56:37.917Z,101536.58
2023-04-06T00:59:06.484Z,101533.73
2023-04-06T01:01:35.343Z,101537.63
2023-04-06T01:04:07.353Z,101531.98
2023-04-06T01:06:41.239Z,101537.04
2023-04-06T01:09:09.577Z,101537.49
2023-04-06T01:11:37.809Z,101538.88
2023-04-06T01:14:06.903Z,101541.36
2023-04-06T01:16:50.433Z,101542.73
2023-04-06T01:19:23.178Z,101540.52
2023-04-06T01:21:54.376Z,101536.50
2023-04-06T01:24:31.467Z,101534.67
2023-04-06T01:27:10.182Z,101538.89
2023-04-06T01:29:46.534Z,101535.08
2023-04-06T01:32:16.769Z,101534.04
2023-04-06T01:34:49.176Z,101535.92
2023-04-06T01:37:17.067Z,101537.34
2023-04-06T01:39:46.371Z,101535.70
2023-04-06T01:42:18.940Z,101536.55
2023-04-06T01:44:48.610Z,101539.33
2023-04-06T01:47:17.040Z,101540.80
2023-04-06T01:49:46.118Z,101540.00
2023-04-06T01:52:15.229Z,101540.74
2023-04-06T01:54:44.465Z,101533.64
2023-04-06T01:57:16.544Z,101532.55
2023-04-06T01:59:48.744Z,101534.14
2023-04-06T02:02:22.603Z,101539.80
2023-04-06T02:04:58.820Z,101537.82
2023-04-06T02:07:27.082Z,101535.99
2023-04-06T02:09:56.782Z,101534.30
2023-04-06T02:12:29.623Z,101534.80
2023-04-06T02:14:57.807Z,101537.02
2023-04-06T02:17:25.772Z,101532.19
2023-04-06T02:19:53.720Z,101526.52
2023-04-06T02:22:21.804Z,101532.13
2023-04-06T02:24:49.710Z,101529.71
2023-04-06T02:27:17.621Z,101531.76
2023-04-06T02:29:48.270Z,101531.23
2023-04-06T02:32:20.840Z,101525.94
2023-04-06T02:34:49.010Z,101529.23
2023-04-06T02:37:17.537Z,101528.37
2023-04-06T02:39:45.507Z,101535.09
2023-04-06T02:42:16.233Z,101533.94
2023-04-06T02:44:44.879Z,101534.23
2023-04-06T02:47:13.072Z,101532.70
2023-04-06T02:49:41.732Z,101532.36
2023-04-06T02:52:09.734Z,101537.44
2023-04-06T02:54:38.263Z,101539.28
2023-04-06T02:57:06.949Z,101544.26
2023-04-06T02:59:41.390Z,101545.55
2023-04-06T03:02:14.767Z,101549.64
2023-04-06T03:04:45.559Z,101553.58
2023-04-06T03:07:21.943Z,101553.23
2023-04-06T03:09:49.803Z,101552.59
2023-04-06T03:12:19.143Z,101552.77
2023-04-06T03:15:07.755Z,101548.70
2023-04-06T03:17:36.649Z,101556.08
2023-04-06T03:20:06.327Z,101556.80
2023-04-06T03:22:34.549Z,101560.96
2023-04-06T03:25:03.852Z,101562.73
2023-04-06T03:27:33.768Z,101563.35
2023-04-06T03:30:03.245Z,101564.36
2023-04-06T03:32:34.371Z,101561.00
2023-04-06T03:35:03.912Z,101561.87
2023-04-06T03:37:32.682Z,101562.20
2023-04-06T03:40:05.790Z,101567.33
2023-04-06T03:42:33.965Z,101570.15
2023-04-06T03:45:09.702Z,101574.09
2023-04-06T03:47:39.390Z,101575.07
2023-04-06T03:50:08.002Z,101577.86
2023-04-06T03:52:37.455Z,101579.93
2023-04-06T03:55:06.354Z,101576.41
2023-04-06T03:57:34.377Z,101583.41
2023-04-06T04:00:02.230Z,101584.09
2023-04-06T04:02:40.757Z,101583.59
2023-04-06T04:05:09.278Z,101581.45
2023-04-06T04:07:38.568Z,101579.98
2023-04-06T04:10:07.857Z,101585.85
2023-04-06T04:12:36.402Z,101586.55
2023-04-06T04:15:04.962Z,101583.48
2023-04-06T04:17:33.350Z,101584.48
2023-04-06T04:20:01.221Z,101583.51
2023-04-06T04:22:29.182Z,101582.96
2023-04-06T04:24:57.043Z,101582.95
2023-04-06T04:27:25.143Z,101585.73
2023-04-06T04:29:53.230Z,101583.93
2023-04-06T04:32:21.753Z,101585.40
2023-04-06T04:34:50.916Z,101582.32
2023-04-06T04:37:31.711Z,101583.85
2023-04-06T04:40:00.042Z,101585.67
2023-04-06T04:42:30.963Z,101587.58
2023-04-06T04:44:59.918Z,101588.08
2023-04-06T04:47:34.481Z,101584.83
2023-04-06T04:50:02.472Z,101586.15
2023-04-06T04:52:30.965Z,101589.23
2023-04-06T04:55:11.990Z,101590.39
2023-04-06T04:57:40.521Z,101588.48
2023-04-06T05:00:08.892Z,101587.11
2023-04-06T05:02:38.082Z,101583.30
2023-04-06T05:05:17.843Z,101587.15
2023-04-06T05:07:45.986Z,101586.77
2023-04-06T05:10:21.627Z,101593.02
2023-04-06T05:12:54.419Z,101590.24
2023-04-06T05:15:22.656Z,101588.25
2023-04-06T05:17:53.211Z,101592.39
2023-04-06T05:20:24.898Z,101598.90
2023-04-06T05:22:52.932Z,101598.74
2023-04-06T05:25:21.123Z,101595.50
2023-04-06T05:27:51.166Z,101601.20
2023-04-06T05:30:31.525Z,101599.77
2023-04-06T05:33:00.632Z,101600.52
2023-04-06T05:35:32.512Z,101604.81
2023-04-06T05:38:02.980Z,101604.74
2023-04-06T05:40:31.354Z,101609.64
2023-04-06T05:42:59.508Z,101611.81
2023-04-06T05:45:27.466Z,101607.75
2023-04-06T05:47:57.160Z,101606.97
2023-04-06T05:50:28.785Z,101603.59
2023-04-06T05:52:57.510Z,101604.72
2023-04-06T05:55:29.082Z,101598.64
2023-04-06T05:58:07.399Z,101597.09
2023-04-06T06:00:35.520Z,101594.29
2023-04-06T06:03:06.884Z,101594.67
2023-04-06T06:05:35.952Z,101598.58
2023-04-06T06:08:11.382Z,101597.65
2023-04-06T06:10:41.357Z,101596.09
2023-04-06T06:13:11.384Z,101594.98
2023-04-06T06:15:39.560Z,101594.42
2023-04-06T06:18:07.936Z,101593.90
2023-04-06T06:20:36.481Z,101591.95
2023-04-06T06:23:05.860Z,101589.27
2023-04-06T06:25:34.329Z,101590.64
2023-04-06T06:28:02.258Z,101588.91
2023-04-06T06:30:31.891Z,101586.63
2023-04-06T06:33:01.350Z,101586.77
2023-04-06T06:35:30.016Z,101588.00
2023-04-06T06:37:58.232Z,101590.05
2023-04-06T06:40:28.371Z,101595.86
2023-04-06T06:42:56.932Z,101601.13
2023-04-06T06:45:47.932Z,101599.92
2023-04-06T06:48:16.234Z,101596.20
2023-04-06T06:50:44.214Z,101597.91
2023-04-06T06:53:13.773Z,101596.02
2023-04-06T06:55:41.801Z,101597.29
2023-04-06T06:58:11.372Z,101595.06
2023-04-06T07:00:39.488Z,101593.35
2023-04-06T07:03:07.841Z,101598.78
2023-04-06T07:05:36.563Z,101598.88
2023-04-06T07:08:04.833Z,101599.08
2023-04-06T07:10:32.855Z,101597.96
2023-04-06T07:13:01.451Z,101600.44
2023-04-06T07:15:29.447Z,101602.50
2023-04-06T07:17:57.570Z,101595.58
2023-04-06T07:20:25.617Z,101593.05
2023-04-06T07:22:53.664Z,101597.38
2023-04-06T07:25:24.297Z,101590.98
2023-04-06T07:27:53.507Z,101590.30
2023-04-06T07:30:23.050Z,101590.08
2023-04-06T07:32:51.033Z,101590.69
2023-04-06T07:35:19.298Z,101595.20
2023-04-06T07:37:47.802Z,101590.41
2023-04-06T07:40:15.977Z,101593.77
2023-04-06T07:42:44.548Z,101593.25
2023-04-06T07:45:12.743Z,101594.83
2023-04-06T07:47:40.788Z,101595.95
2023-04-06T07:50:09.664Z,101595.30
2023-04-06T07:52:38.610Z,101595.15
2023-04-06T07:55:07.528Z,101594.94
2023-04-06T07:57:35.460Z,101594.70
2023-04-06T08:00:04.919Z,101590.78
2023-04-06T08:02:40.682Z,101594.30
2023-04-06T08:05:09.331Z,101594.29
2023-04-06T08:07:37.593Z,101595.14
2023-04-06T08:10:05.919Z,101594.87
2023-04-06T08:12:35.195Z,101598.33
2023-04-06T08:15:04.637Z,101596.90
2023-04-06T08:17:33.536Z,101595.60
2023-04-06T08:20:01.881Z,101590.64
2023-04-06T08:22:29.869Z,101590.82
2023-04-06T08:24:57.825Z,101592.95
2023-04-06T08:27:26.068Z,101592.23
2023-04-06T08:29:54.040Z,101590.37
2023-04-06T08:32:22.146Z,101586.16
2023-04-06T08:34:50.176Z,101584.73
2023-04-06T08:37:18.076Z,101584.53
2023-04-06T08:39:45.927Z,101582.59
2023-04-06T08:42:20.318Z,101584.50
2023-04-06T08:44:50.423Z,101578.63
2023-04-06T08:47:18.457Z,101575.52
2023-04-06T08:49:47.327Z,101575.96
2023-04-06T08:52:19.431Z,101575.55
2023-04-06T08:54:48.673Z,101578.14
2023-04-06T08:57:18.455Z,101581.42
2023-04-06T08:59:46.728Z,101575.25
2023-04-06T09:02:19.329Z,101572.48
2023-04-06T09:04:50.064Z,101571.30
2023-04-06T09:07:18.168Z,101574.00
2023-04-06T09:09:49.192Z,101572.56
2023-04-06T09:12:25.038Z,101574.48
2023-04-06T09:14:54.155Z,101573.30
2023-04-06T09:17:31.101Z,101567.52
2023-04-06T09:20:00.512Z,101569.86
2023-04-06T09:22:38.034Z,101566.75
2023-04-06T09:25:07.286Z,101561.83
2023-04-06T09:27:38.098Z,101559.29
2023-04-06T09:30:14.850Z,101565.51
2023-04-06T09:32:55.471Z,101568.27
2023-04-06T09:35:24.617Z,101564.42
2023-04-06T09:37:53.751Z,101565.06
2023-04-06T09:40:23.420Z,101560.45
2023-04-06T09:42:58.629Z,101561.95
2023-04-06T09:45:31.032Z,101560.92
2023-04-06T09:47:59.518Z,101562.48
2023-04-06T09:50:28.543Z,101562.44
2023-04-06T09:52:59.925Z,101554.45
2023-04-06T09:55:32.565Z,101549.18
2023-04-06T09:58:08.445Z,101552.01
2023-04-06T10:00:48.067Z,101553.31
2023-04-06T10:03:40.041Z,101552.70
2023-04-06T10:06:13.953Z,101548.56
2023-04-06T10:08:47.066Z,101551.08
2023-04-06T10:11:16.581Z,101541.94
2023-04-06T10:13:48.311Z,101539.42
2023-04-06T10:16:16.683Z,101531.25
2023-04-06T10:18:53.290Z,101534.23
2023-04-06T10:21:24.912Z,101534.49
2023-04-06T10:23:57.265Z,101527.07
2023-04-06T10:26:25.200Z,101524.98
2023-04-06T10:28:53.866Z,101523.21
2023-04-06T10:31:29.896Z,101528.69
2023-04-06T10:34:02.186Z,101522.48
2023-04-06T10:36:34.470Z,101523.23
2023-04-06T10:39:07.420Z,101518.66
2023-04-06T10:41:49.305Z,101514.02
2023-04-06T10:44:25.149Z,101513.70
2023-04-06T10:46:57.606Z,101506.55
2023-04-06T10:49:28.650Z,101514.38
2023-04-06T10:51:57.727Z,101507.19
2023-04-06T10:54:27.918Z,101507.38
2023-04-06T10:56:57.635Z,101506.15
2023-04-06T10:59:26.446Z,101500.46
2023-04-06T11:01:56.897Z,101506.55
2023-04-06T11:04:26.349Z,101500.30
2023-04-06T11:06:56.160Z,101491.67
2023-04-06T11:09:33.311Z,101493.81
2023-04-06T11:12:01.981Z,101494.38
2023-04-06T11:14:29.926Z,101486.52
2023-04-06T11:16:57.960Z,101486.03
2023-04-06T11:19:26.255Z,101487.27
2023-04-06T11:21:54.126Z,101486.86
2023-04-06T11:24:23.994Z,101488.40
2023-04-06T11:26:55.457Z,101484.48
2023-04-06T11:29:24.829Z,101474.41
2023-04-06T11:32:03.775Z,101472.48
2023-04-06T11:34:34.283Z,101465.36
2023-04-06T11:37:06.853Z,101465.81
2023-04-06T11:39:41.509Z,101464.83
2023-04-06T11:42:09.703Z,101460.31
2023-04-06T11:44:40.197Z,101454.08
2023-04-06T11:47:10.390Z,101450.94
2023-04-06T11:49:40.373Z,101455.14
2023-04-06T11:52:18.613Z,101446.35
2023-04-06T11:54:48.167Z,101444.72
2023-04-06T11:57:17.856Z,101445.66
2023-04-06T11:59:46.108Z,101436.11
2023-04-06T12:02:14.081Z,101438.16
2023-04-06T12:04:42.185Z,101433.05
2023-04-06T12:07:10.341Z,101431.81
2023-04-06T12:09:38.326Z,101438.41
2023-04-06T12:12:06.407Z,101426.94
2023-04-06T12:14:34.389Z,101424.05
2023-04-06T12:17:02.405Z,101422.88
2023-04-06T12:19:31.152Z,101421.62
2023-04-06T12:21:59.948Z,101425.65
2023-04-06T12:24:30.012Z,101428.19
2023-04-06T12:27:08.823Z,101421.23
2023-04-06T12:29:38.966Z,101414.23
2023-04-06T12:32:07.341Z,101415.48
2023-04-06T12:34:35.841Z,101406.00
2023-04-06T12:37:04.202Z,101408.76
2023-04-06T12:39:32.618Z,101410.45
2023-04-06T12:42:02.610Z,101408.31
2023-04-06T12:44:30.810Z,101403.64
2023-04-06T12:46:58.712Z,101402.54
2023-04-06T12:49:27.070Z,101398.76
2023-04-06T12:51:55.025Z,101392.18
2023-04-06T12:54:22.951Z,101396.55
2023-04-06T12:56:50.892Z,101387.14
2023-04-06T12:59:18.874Z,101382.05
2023-04-06T13:01:46.929Z,101382.40
2023-04-06T13:04:14.890Z,101380.06
2023-04-06T13:06:42.846Z,101377.58
2023-04-06T13:09:11.022Z,101381.10
2023-04-06T13:11:39.888Z,101371.61
2023-04-06T13:14:07.796Z,101368.66
2023-04-06T13:16:36.361Z,101365.49
2023-04-06T13:19:04.302Z,101368.38
2023-04-06T13:21:32.563Z,101361.20
2023-04-06T13:24:01.147Z,101359.37
2023-04-06T13:26:29.750Z,101359.39
2023-04-06T13:28:57.823Z,101358.14
2023-04-06T13:31:26.477Z,101349.88
2023-04-06T13:33:54.348Z,101348.46
2023-04-06T13:36:23.672Z,101351.21
2023-04-06T13:38:51.634Z,101350.73
2023-04-06T13:41:22.449Z,101343.42
2023-04-06T13:43:50.966Z,101353.48
2023-04-06T13:46:19.671Z,101343.63
2023-04-06T13:48:48.266Z,101342.83
2023-04-06T13:51:16.656Z,101342.55
2023-04-06T13:53:44.645Z,101344.06
2023-04-06T13:56:12.645Z,101339.42
2023-04-06T13:58:40.805Z,101331.41
2023-04-06T14:01:11.372Z,101334.87
2023-04-06T14:03:43.161Z,101336.57
2023-04-06T14:06:29.654Z,101330.33
2023-04-06T14:08:59.692Z,101331.71
2023-04-06T14:11:27.779Z,101328.63
2023-04-06T14:13:58.033Z,101325.95
2023-04-06T14:16:27.420Z,101325.59
2023-04-06T14:18:56.215Z,101320.84
2023-04-06T14:21:24.502Z,101322.58
2023-04-06T14:23:53.635Z,101323.67
2023-04-06T14:26:22.043Z,101323.21
2023-04-06T14:28:50.151Z,101321.43
2023-04-06T14:31:18.236Z,101327.90
2023-04-06T14:33:46.538Z,101323.03
2023-04-06T14:36:14.915Z,101317.88
2023-04-06T14:38:44.966Z,101316.45
2023-04-06T14:41:17.328Z,101317.71
2023-04-06T14:43:47.099Z,101314.90
2023-04-06T14:46:19.043Z,101312.07
2023-04-06T14:48:48.924Z,101310.98
2023-04-06T14:51:17.801Z,101306.71
2023-04-06T14:53:45.862Z,101309.84
2023-04-06T14:56:14.066Z,101310.65
2023-04-06T14:58:41.920Z,101310.75
2023-04-06T15:01:09.845Z,101310.23
2023-04-06T15:03:37.982Z,101312.11
2023-04-06T15:06:15.931Z,101308.14
2023-04-06T15:08:44.656Z,101306.48
2023-04-06T15:11:13.705Z,101305.38
2023-04-06T15:13:42.667Z,101308.84
2023-04-06T15:16:11.339Z,101307.05
2023-04-06T15:18:39.173Z,101303.21
2023-04-06T15:21:08.170Z,101303.60
2023-04-06T15:23:36.296Z,101305.89
2023-04-06T15:26:04.981Z,101300.56
2023-04-06T15:28:32.837Z,101300.95
2023-04-06T15:31:00.880Z,101299.82
2023-04-06T15:33:28.739Z,101302.71
2023-04-06T15:35:56.777Z,101300.12
2023-04-06T15:38:24.675Z,101298.15
2023-04-06T15:40:52.801Z,101297.70
2023-04-06T15:43:20.753Z,101299.48
2023-04-06T15:45:48.758Z,101298.73
2023-04-06T15:48:16.629Z,101294.35
2023-04-06T15:50:44.566Z,101292.09
2023-04-06T15:53:12.891Z,101286.84
2023-04-06T15:55:40.962Z,101289.35
2023-04-06T15:58:08.918Z,101289.56
2023-04-06T16:00:37.227Z,101293.16
2023-04-06T16:03:05.375Z,101294.73
2023-04-06T16:05:34.843Z,101290.33
2023-04-06T16:08:08.353Z,101294.40
2023-04-06T16:10:36.183Z,101296.19
2023-04-06T16:13:04.103Z,101293.31
2023-04-06T16:15:32.028Z,101286.92
2023-04-06T16:18:00.107Z,101283.62
2023-04-06T16:20:28.438Z,101284.31
2023-04-06T16:22:56.668Z,101289.35
2023-04-06T16:25:24.553Z,101288.52
2023-04-06T16:27:52.507Z,101286.36
2023-04-06T16:30:20.749Z,101288.77
2023-04-06T16:32:51.919Z,101289.20
2023-04-06T16:35:20.764Z,101290.55
2023-04-06T16:37:49.938Z,101290.25
2023-04-06T16:40:18.119Z,101282.63
2023-04-06T16:42:46.877Z,101278.55
2023-04-06T16:45:15.990Z,101279.58
2023-04-06T16:47:43.817Z,101283.64
2023-04-06T16:50:11.797Z,101280.81
2023-04-06T16:52:39.737Z,101284.51
2023-04-06T16:55:08.295Z,101284.41
2023-04-06T16:57:36.358Z,101280.23
2023-04-06T17:00:07.535Z,101282.90
2023-04-06T17:02:37.038Z,101284.53
2023-04-06T17:05:06.641Z,101287.06
2023-04-06T17:07:36.323Z,101286.36
2023-04-06T17:10:06.843Z,101280.08
2023-04-06T17:12:35.013Z,101278.59
2023-04-06T17:15:02.991Z,101278.21
2023-04-06T17:17:30.940Z,101277.11
2023-04-06T17:19:58.819Z,101276.45
2023-04-06T17:22:26.946Z,101285.27
2023-04-06T17:24:54.903Z,101290.49
2023-04-06T17:27:23.729Z,101287.19
2023-04-06T17:29:52.305Z,101293.65
2023-04-06T17:32:22.079Z,101293.45
2023-04-06T17:34:50.393Z,101292.85
2023-04-06T17:37:18.299Z,101295.98
2023-04-06T17:39:46.952Z,101297.47
2023-04-06T17:42:14.973Z,101298.27
2023-04-06T17:44:42.906Z,101302.73
2023-04-06T17:47:11.085Z,101300.10
2023-04-06T17:49:39.231Z,101300.42
2023-04-06T17:52:07.782Z,101305.63
2023-04-06T17:54:36.130Z,101304.24
2023-04-06T17:57:05.831Z,101308.23
2023-04-06T17:59:33.843Z,101310.02
2023-04-06T18:02:03.268Z,101310.49
2023-04-06T18:04:31.465Z,101312.66
2023-04-06T18:06:59.929Z,101310.45
2023-04-06T18:09:32.084Z,101314.02
2023-04-06T18:12:01.371Z,101312.85
2023-04-06T18:14:30.310Z,101311.09
2023-04-06T18:16:58.539Z,101312.89
2023-04-06T18:19:28.922Z,101317.45
2023-04-06T18:21:57.192Z,101318.59
2023-04-06T18:24:40.511Z,101312.59
2023-04-06T18:27:13.065Z,101315.05
2023-04-06T18:29:44.354Z,101310.76
2023-04-06T18:32:18.532Z,101316.42
2023-04-06T18:34:46.788Z,101314.89
2023-04-06T18:37:16.287Z,101318.22
2023-04-06T18:39:44.468Z,101317.59
2023-04-06T18:42:13.153Z,101318.69
2023-04-06T18:44:41.640Z,101314.70
2023-04-06T18:47:10.427Z,101316.84
2023-04-06T18:49:38.576Z,101317.69
2023-04-06T18:52:06.593Z,101314.70
2023-04-06T18:54:34.944Z,101315.14
2023-04-06T18:57:04.338Z,101314.36
2023-04-06T18:59:32.289Z,101312.69
2023-04-06T19:02:00.704Z,101315.09
2023-04-06T19:04:29.874Z,101318.63
2023-04-06T19:07:00.908Z,101315.72
2023-04-06T19:09:29.417Z,101319.86
2023-04-06T19:11:57.713Z,101313.60
2023-04-06T19:14:25.853Z,101312.04
2023-04-06T19:16:54.324Z,101314.17
2023-04-06T19:19:22.522Z,101317.05
2023-04-06T19:21:50.884Z,101314.27
2023-04-06T19:24:18.917Z,101316.23
2023-04-06T19:26:47.330Z,101313.67
2023-04-06T19:29:15.517Z,101312.58
2023-04-06T19:31:43.511Z,101308.77
2023-04-06T19:34:17.465Z,101308.40
2023-04-06T19:36:46.321Z,101308.58
2023-04-06T19:39:18.241Z,101307.58
2023-04-06T19:41:46.501Z,101306.46
2023-04-06T19:44:14.510Z,101302.84
2023-04-06T19:46:42.884Z,101302.11
2023-04-06T19:49:11.046Z,101303.02
2023-04-06T19:51:39.230Z,101298.44
2023-04-06T19:54:07.772Z,101296.56
2023-04-06T19:56:35.847Z,101295.13
2023-04-06T19:59:03.991Z,101296.30
2023-04-06T20:01:32.432Z,101293.39
2023-04-06T20:04:00.888Z,101294.04
2023-04-06T20:06:30.219Z,101292.98
2023-04-06T20:08:58.235Z,101293.61
2023-04-06T20:11:27.262Z,101293.23
2023-04-06T20:13:55.239Z,101294.59
2023-04-06T20:16:24.182Z,101293.98
2023-04-06T20:18:52.150Z,101292.66
2023-04-06T20:21:20.034Z,101295.80
2023-04-06T20:23:48.000Z,101296.00
2023-04-06T20:26:15.975Z,101297.17
2023-04-06T20:28:43.892Z,101296.15
2023-04-06T20:31:12.392Z,101299.29
2023-04-06T20:33:40.859Z,101300.83
2023-04-06T20:36:08.810Z,101301.91
2023-04-06T20:38:37.146Z,101303.01
2023-04-06T20:41:07.701Z,101302.02
2023-04-06T20:43:36.809Z,101297.67
2023-04-06T20:46:07.503Z,101300.19
2023-04-06T20:48:38.592Z,101304.45
2023-04-06T20:51:06.455Z,101306.77
2023-04-06T20:53:34.688Z,101308.96
2023-04-06T20:56:03.481Z,101307.67
2023-04-06T20:58:31.592Z,101307.46
2023-04-06T21:00:59.666Z,101307.11
2023-04-06T21:03:28.082Z,101305.38
2023-04-06T21:06:02.295Z,101300.17
2023-04-06T21:08:30.812Z,101297.14
2023-04-06T21:10:58.797Z,101294.68
2023-04-06T21:13:27.067Z,101296.24
2023-04-06T21:15:57.055Z,101299.35
2023-04-06T21:18:25.198Z,101299.11
2023-04-06T21:20:53.450Z,101301.45
2023-04-06T21:23:23.124Z,101297.94
2023-04-06T21:25:52.177Z,101298.30
2023-04-06T21:28:20.174Z,101299.77
2023-04-06T21:30:48.104Z,101298.67
2023-04-06T21:33:16.031Z,101299.08
2023-04-06T21:35:43.997Z,101298.86
2023-04-06T21:38:12.100Z,101300.73
2023-04-06T21:40:40.093Z,101301.75
2023-04-06T21:43:08.911Z,101299.58
2023-04-06T21:45:36.792Z,101296.36
2023-04-06T21:48:04.986Z,101301.41
2023-04-06T21:50:33.007Z,101296.85
2023-04-06T21:53:01.054Z,101298.20
2023-04-06T21:55:28.898Z,101299.61
2023-04-06T21:57:56.749Z,101303.73
2023-04-06T22:00:24.622Z,101301.27
2023-04-06T22:02:52.698Z,101298.25
2023-04-06T22:05:20.924Z,101296.70
2023-04-06T22:07:48.907Z,101295.80
2023-04-06T22:10:16.814Z,101293.48
2023-04-06T22:12:44.735Z,101290.94
2023-04-06T22:15:13.200Z,101294.70
2023-04-06T22:17:41.270Z,101291.01
2023-04-06T22:20:10.418Z,101286.18
2023-04-06T22:22:39.020Z,101285.42
2023-04-06T22:25:07.592Z,101284.29
2023-04-06T22:27:35.617Z,101284.39
2023-04-06T22:30:04.762Z,101278.66
2023-04-06T22:32:32.705Z,101275.81
2023-04-06T22:35:00.697Z,101271.25
2023-04-06T22:37:28.790Z,101268.39
2023-04-06T22:39:56.638Z,101268.11
2023-04-06T22:42:24.557Z,101263.06
2023-04-06T22:44:52.514Z,101260.80
2023-04-06T22:47:20.419Z,101258.96
2023-04-06T22:49:48.346Z,101254.11
2023-04-06T22:52:16.262Z,101258.83
2023-04-06T22:54:44.226Z,101256.40
2023-04-06T22:57:12.176Z,101256.76
2023-04-06T22:59:40.116Z,101258.59
2023-04-06T23:02:08.334Z,101258.38
2023-04-06T23:04:36.360Z,101257.95
2023-04-06T23:07:04.229Z,101256.80
2023-04-06T23:09:32.083Z,101253.30
2023-04-06T23:12:00.181Z,101251.86
2023-04-06T23:14:28.138Z,101250.95
2023-04-06T23:16:56.292Z,101249.52
2023-04-06T23:19:24.250Z,101246.45
2023-04-06T23:21:52.158Z,101247.23
2023-04-06T23:24:20.017Z,101244.77
2023-04-06T23:26:48.208Z,101248.13
2023-04-06T23:29:16.167Z,101246.36
2023-04-06T23:31:44.026Z,101244.48
2023-04-06T23:34:11.898Z,101244.83
2023-04-06T23:36:39.730Z,101243.27
2023-04-06T23:39:07.679Z,101237.00
2023-04-06T23:41:35.675Z,101238.41
2023-04-06T23:44:03.721Z,101236.48
2023-04-06T23:46:31.790Z,101235.88
2023-04-06T23:48:59.823Z,101238.25
2023-04-06T23:51:27.727Z,101236.45
2023-04-06T23:53:55.923Z,101237.48
2023-04-06T23:56:23.879Z,101237.02
2023-04-06T23:58:51.856Z,101237.99
